Flugplatz Meinerzhagen (EDKZ)

Hier findest Du alle Informationen zum Flugplatz Meinerzhagen (EDKZ).

Informationen für Piloten zum Flugplatz Meinerzhagen

Hier findest Du alle relevanten Informationen, die Du als Pilot benötigst, um Meinerzhagen anzufliegen.

Flugplatz: Meinerzhagen ICAO-Code: EDKZ
Frequenz Turm: 130,600 Mhz GAFOR Gebiet: 35
Frequenz Ground: 130,600 Mhz Mogas: nein
Platzrunde: N 2400 ft Landegebühr: -
Platzhöhe: 1.548 ft Sunrise: 03:13 Uhr UTC
Pisten: 07/25 - 820 m x 20 m, ASPH Sunset: 19:50 Uhr UTC

Flugwetter am Flugplatz Meinerzhagen

Die METAR Information stammen aus EDDK (41.28 km entfernt).

METAR Code:
2024/06/10 20:20
EDDK 102020Z AUTO 29015KT 9999 SCT028 BKN033 BKN043 11/06 Q1010 TEMPO 29015G25KT

Flugschulen am Flugplatz Meinerzhagen

Am Flugplatz Meinerzhagen gibt es eine Flugschule.

Flugluft.de Tragschrauber

Benachbarte Flugplätze und Flugschulen

Es gibt 21 weitere Flugplätze in einem Umkreis von 50 km um den Flugplatz Meinerzhagen.

Jetzt anmelden

Passwort vergessen

Umfrage Archiv

Wie häufig haltet Ihr die Halbkreisflugregel ein?

Eher häufig!
36 %
Immer!
30.7 %
Hin und wieder!
16.7 %
Nie!
9.5 %
Eher selten!
7.2 %
Stimmen: 264 | Diskussion
Anzeige: Roland Aircraft
Statistik Alle Mitglieder

Aktuell sind 35 Besucher online, davon 2 Mitglieder und 33 Gäste.


Mitglieder online:
marcom  b3nn0 

Anzeige: EasyVFR